Time;durP1;ratioP1;P1;durP2;ratioP2;P2;SDS_P1;SDS_P2;PMS_P1;PMS_P2;Temp;Humidity;BMP_temperature;BMP_pressure;BME280_temperature;BME280_humidity;BME280_pressure;Samples;Min_cycle;Max_cycle;Signal;HPM_P1;HPM_P2
2021/09/13 00:00:54;;;;;;;19.80;13.00;;;16.00;71.10;;;;;;4975947;28;20031;-82
2021/09/13 00:03:20;;;;;;;22.08;12.85;;;16.00;71.40;;;;;;4975840;28;20031;-82
2021/09/13 00:05:46;;;;;;;18.63;13.13;;;16.00;71.20;;;;;;4975993;28;20386;-82
2021/09/13 00:08:12;;;;;;;19.20;12.85;;;16.00;71.20;;;;;;4976972;28;20118;-81
2021/09/13 00:10:38;;;;;;;20.55;15.20;;;16.00;71.10;;;;;;4959479;28;20437;-82
2021/09/13 00:13:04;;;;;;;43.67;30.73;;;16.00;71.00;;;;;;4960952;28;20449;-83
2021/09/13 00:15:30;;;;;;;47.90;33.65;;;16.00;71.50;;;;;;4993420;28;20101;-82
2021/09/13 00:17:56;;;;;;;35.10;25.23;;;15.90;71.80;;;;;;4995708;28;20403;-82
2021/09/13 00:20:21;;;;;;;26.73;19.65;;;15.90;71.70;;;;;;4989593;28;20042;-83
2021/09/13 00:22:47;;;;;;;22.33;16.60;;;15.90;71.60;;;;;;4995940;28;20130;-82
2021/09/13 00:25:13;;;;;;;21.50;15.35;;;15.90;71.70;;;;;;4996005;28;20425;-82
2021/09/13 00:27:39;;;;;;;20.88;14.80;;;15.90;71.60;;;;;;4995669;28;20046;-82
2021/09/13 00:30:06;;;;;;;22.38;15.55;;;15.80;71.90;;;;;;4996160;28;20042;-82
2021/09/13 00:32:31;;;;;;;22.60;15.52;;;15.80;72.30;;;;;;4994721;28;20097;-82
2021/09/13 00:34:57;;;;;;;19.45;14.73;;;15.70;72.40;;;;;;4996114;28;20073;-82
2021/09/13 00:37:23;;;;;;;16.92;13.15;;;15.70;72.80;;;;;;4972270;28;20047;-81
2021/09/13 00:39:49;;;;;;;17.00;12.82;;;15.70;72.90;;;;;;4976071;28;20035;-84
2021/09/13 00:42:15;;;;;;;17.60;12.13;;;15.60;72.60;;;;;;4976618;28;20037;-82
2021/09/13 00:44:40;;;;;;;19.98;13.50;;;15.60;72.70;;;;;;4975240;28;20039;-82
2021/09/13 00:47:06;;;;;;;18.88;13.50;;;15.60;73.00;;;;;;4974810;28;20050;-82
2021/09/13 00:49:32;;;;;;;20.05;14.38;;;15.60;73.00;;;;;;4974816;28;20039;-83
2021/09/13 00:51:58;;;;;;;21.48;15.93;;;15.50;73.10;;;;;;4975343;28;20042;-82
2021/09/13 00:54:23;;;;;;;19.45;14.50;;;15.50;73.60;;;;;;4974706;28;20035;-82
2021/09/13 00:56:49;;;;;;;20.02;15.10;;;15.40;73.60;;;;;;4975095;28;20389;-83
2021/09/13 00:59:15;;;;;;;19.63;14.73;;;15.40;74.00;;;;;;4975933;28;20560;-83
2021/09/13 01:01:41;;;;;;;23.23;16.33;;;15.40;73.60;;;;;;4976214;28;20489;-82
2021/09/13 01:04:07;;;;;;;23.38;17.00;;;15.30;74.40;;;;;;4958677;28;20069;-82
2021/09/13 01:06:33;;;;;;;23.25;16.73;;;15.30;74.80;;;;;;4942675;28;20142;-82
2021/09/13 01:08:59;;;;;;;22.25;15.85;;;15.20;75.00;;;;;;4974447;28;20034;-82
2021/09/13 01:11:27;;;;;;;19.17;14.50;;;15.20;74.80;;;;;;4974670;28;20059;-82
2021/09/13 01:13:52;;;;;;;22.65;16.38;;;15.20;74.60;;;;;;4975742;28;20105;-82
2021/09/13 01:16:19;;;;;;;23.67;18.00;;;15.10;76.10;;;;;;4975695;28;20470;-82
2021/09/13 01:18:45;;;;;;;23.30;16.27;;;15.10;76.30;;;;;;4974442;28;20047;-82
2021/09/13 01:21:11;;;;;;;21.20;15.80;;;15.00;75.90;;;;;;4958218;28;20134;-82
2021/09/13 01:23:37;;;;;;;22.67;16.40;;;15.10;76.20;;;;;;4957578;28;20034;-82
2021/09/13 01:26:04;;;;;;;21.88;16.17;;;15.10;76.30;;;;;;4974431;28;20042;-82
2021/09/13 01:28:30;;;;;;;23.20;16.23;;;15.10;76.50;;;;;;4958178;28;20050;-83
2021/09/13 01:30:56;;;;;;;20.67;15.27;;;15.10;76.60;;;;;;4975352;28;20031;-83
2021/09/13 01:33:23;;;;;;;18.20;14.02;;;15.10;76.50;;;;;;4975085;28;20046;-82
2021/09/13 01:35:50;;;;;;;16.75;13.10;;;15.10;76.30;;;;;;4973890;28;20047;-81
2021/09/13 01:38:21;;;;;;;15.98;12.57;;;15.10;75.90;;;;;;4988651;28;20060;-81
2021/09/13 01:40:48;;;;;;;18.40;13.55;;;15.10;76.20;;;;;;4977623;28;20038;-82
2021/09/13 01:43:14;;;;;;;18.23;13.65;;;15.10;75.90;;;;;;4994737;28;20046;-81
2021/09/13 01:45:40;;;;;;;19.00;13.75;;;15.10;76.00;;;;;;4994528;28;20038;-81
2021/09/13 01:48:06;;;;;;;19.20;14.40;;;15.10;76.00;;;;;;4977102;28;20096;-82
2021/09/13 01:50:31;;;;;;;17.48;13.52;;;15.00;76.60;;;;;;4976938;28;20038;-83
2021/09/13 01:52:57;;;;;;;16.98;12.55;;;15.00;76.60;;;;;;4992445;28;20129;-82
2021/09/13 01:55:23;;;;;;;19.90;12.95;;;15.00;76.40;;;;;;4993900;28;20038;-82
2021/09/13 01:57:48;;;;;;;18.73;13.05;;;15.00;76.50;;;;;;4994581;28;20088;-81
2021/09/13 02:00:15;;;;;;;19.40;14.38;;;15.00;76.70;;;;;;4977096;28;20046;-81
2021/09/13 02:02:40;;;;;;;16.65;12.45;;;14.90;77.00;;;;;;4994461;28;20030;-81
2021/09/13 02:05:07;;;;;;;18.13;13.43;;;14.90;76.70;;;;;;4994663;28;20038;-82
2021/09/13 02:07:33;;;;;;;18.20;13.48;;;14.90;76.80;;;;;;4976771;28;20038;-82
2021/09/13 02:09:59;;;;;;;17.77;13.40;;;14.90;77.00;;;;;;4994128;28;20065;-82
2021/09/13 02:12:25;;;;;;;18.98;13.77;;;14.80;77.00;;;;;;4992977;28;20037;-82
2021/09/13 02:14:50;;;;;;;19.65;14.77;;;14.80;77.40;;;;;;4993228;28;20492;-82
2021/09/13 02:17:18;;;;;;;22.50;15.20;;;14.70;77.60;;;;;;4993671;28;20046;-81
2021/09/13 02:19:48;;;;;;;21.95;15.45;;;14.70;78.30;;;;;;4992950;28;20497;-82
2021/09/13 02:22:15;;;;;;;20.40;14.52;;;14.70;78.30;;;;;;4994433;28;20111;-81
2021/09/13 02:24:41;;;;;;;20.23;15.30;;;14.70;78.50;;;;;;4976699;28;20508;-81
2021/09/13 02:27:07;;;;;;;20.45;15.18;;;14.60;78.40;;;;;;4976908;28;20043;-81
2021/09/13 02:29:33;;;;;;;20.15;14.95;;;14.60;78.50;;;;;;4976976;28;20041;-83
2021/09/13 02:31:59;;;;;;;20.30;14.77;;;14.50;78.80;;;;;;4977054;28;20061;-82
2021/09/13 02:34:24;;;;;;;23.20;16.70;;;14.50;79.20;;;;;;4994461;28;20037;-82
2021/09/13 02:36:50;;;;;;;21.15;15.57;;;14.50;79.30;;;;;;4994274;28;20036;-82
2021/09/13 02:39:16;;;;;;;25.23;15.90;;;14.50;79.50;;;;;;4976528;28;20137;-82
2021/09/13 02:41:41;;;;;;;23.45;15.73;;;14.40;79.60;;;;;;4995033;28;20039;-81
2021/09/13 02:44:07;;;;;;;23.00;16.05;;;14.40;79.60;;;;;;4993918;28;20049;-81
2021/09/13 02:46:33;;;;;;;21.40;15.50;;;14.40;79.60;;;;;;4993803;28;20461;-82
2021/09/13 02:48:58;;;;;;;21.40;16.00;;;14.30;79.30;;;;;;4976963;28;20042;-81
2021/09/13 02:51:25;;;;;;;23.27;17.20;;;14.30;80.00;;;;;;4994557;28;20532;-82
2021/09/13 02:53:51;;;;;;;24.63;17.00;;;14.30;80.30;;;;;;5005051;28;20038;-81
2021/09/13 02:56:17;;;;;;;21.23;15.18;;;14.30;80.20;;;;;;5008421;28;20177;-81
2021/09/13 02:58:42;;;;;;;23.67;17.23;;;14.20;80.30;;;;;;5011075;28;20054;-81
2021/09/13 03:01:08;;;;;;;23.15;16.13;;;14.30;81.40;;;;;;4993263;28;20066;-81
2021/09/13 03:03:34;;;;;;;20.00;14.25;;;14.30;81.30;;;;;;4995048;28;20034;-81
2021/09/13 03:06:01;;;;;;;20.85;14.60;;;14.30;81.20;;;;;;5017263;28;20030;-81
2021/09/13 03:08:27;;;;;;;19.70;14.32;;;14.30;81.00;;;;;;5015566;28;20046;-80
2021/09/13 03:10:52;;;;;;;22.23;15.00;;;14.30;80.90;;;;;;4998292;28;20100;-81
2021/09/13 03:13:18;;;;;;;22.20;15.77;;;14.30;80.90;;;;;;5006957;28;20097;-84
2021/09/13 03:15:44;;;;;;;22.08;17.00;;;14.30;81.00;;;;;;5012487;28;20492;-81
2021/09/13 03:18:10;;;;;;;23.45;16.20;;;14.20;81.20;;;;;;4993096;28;20125;-81
2021/09/13 03:20:35;;;;;;;25.08;18.27;;;14.10;81.50;;;;;;5005706;28;20038;-83
2021/09/13 03:23:01;;;;;;;23.58;17.05;;;14.10;82.50;;;;;;4980723;28;20045;-82
2021/09/13 03:25:27;;;;;;;25.52;17.65;;;14.10;82.90;;;;;;4997986;28;20081;-83
2021/09/13 03:27:53;;;;;;;21.33;16.40;;;14.10;83.40;;;;;;4997771;28;20073;-83
2021/09/13 03:30:19;;;;;;;24.80;16.67;;;14.20;83.40;;;;;;4980067;28;20125;-83
2021/09/13 03:32:45;;;;;;;21.25;15.38;;;14.20;83.20;;;;;;4996713;28;20464;-83
2021/09/13 03:35:18;;;;;;;22.67;16.35;;;14.30;82.70;;;;;;4997645;28;20065;-82
2021/09/13 03:37:44;;;;;;;18.33;14.43;;;14.20;82.50;;;;;;4980927;28;20046;-82
2021/09/13 03:40:10;;;;;;;20.55;15.00;;;14.20;82.20;;;;;;4997241;28;20516;-81
2021/09/13 03:42:36;;;;;;;17.85;13.82;;;14.20;82.20;;;;;;4995714;28;20034;-80
2021/09/13 03:45:02;;;;;;;21.60;16.02;;;14.20;82.00;;;;;;4997054;28;20034;-82
2021/09/13 03:47:28;;;;;;;25.00;16.95;;;14.20;82.60;;;;;;4978728;28;20181;-83
2021/09/13 03:49:55;;;;;;;24.20;16.42;;;14.20;83.00;;;;;;4996744;28;20038;-83
2021/09/13 03:52:22;;;;;;;23.38;16.83;;;14.20;83.40;;;;;;4996378;28;20038;-82
2021/09/13 03:54:48;;;;;;;22.83;17.60;;;14.20;83.50;;;;;;4963347;28;20480;-81
2021/09/13 03:57:13;;;;;;;24.20;17.75;;;14.30;83.90;;;;;;4978929;28;20034;-82
2021/09/13 03:59:39;;;;;;;22.05;16.45;;;14.30;83.80;;;;;;4995961;28;20443;-83
2021/09/13 04:02:05;;;;;;;24.42;17.23;;;14.30;83.50;;;;;;4992365;28;20042;-81
2021/09/13 04:04:31;;;;;;;21.50;15.63;;;14.40;83.80;;;;;;4983081;28;20106;-84
2021/09/13 04:07:03;;;;;;;21.35;15.75;;;14.40;83.20;;;;;;4981618;28;20043;-81
2021/09/13 04:11:59;;;;;;;20.60;15.63;;;14.40;82.90;;;;;;4985971;28;20034;-81
2021/09/13 04:14:28;;;;;;;22.42;16.17;;;14.40;83.00;;;;;;5008095;28;20034;-80
2021/09/13 04:16:56;;;;;;;24.30;17.38;;;14.50;83.40;;;;;;5010697;28;20034;-79
2021/09/13 04:19:22;;;;;;;23.08;16.70;;;14.50;83.70;;;;;;4994216;28;20093;-84
2021/09/13 04:21:54;;;;;;;23.77;16.25;;;14.50;83.50;;;;;;4978961;28;20035;-81
2021/09/13 04:24:20;;;;;;;22.88;15.82;;;14.60;83.30;;;;;;4979388;28;20030;-83
2021/09/13 04:26:46;;;;;;;19.55;15.10;;;14.70;83.10;;;;;;4978345;28;20038;-82
2021/09/13 04:29:12;;;;;;;21.13;15.93;;;14.70;82.90;;;;;;4976775;28;20037;-83
2021/09/13 04:31:38;;;;;;;20.35;15.70;;;14.80;83.00;;;;;;4994923;28;20126;-83
2021/09/13 04:34:04;;;;;;;21.65;15.40;;;14.90;83.00;;;;;;4995548;28;20176;-83
2021/09/13 04:36:30;;;;;;;19.58;15.68;;;15.00;82.70;;;;;;4995232;28;20436;-82
2021/09/13 04:38:56;;;;;;;22.13;15.00;;;15.10;82.30;;;;;;4976880;28;20046;-83
2021/09/13 04:41:21;;;;;;;19.90;15.25;;;15.20;82.00;;;;;;4993441;28;20026;-83
2021/09/13 04:43:47;;;;;;;18.38;14.88;;;15.30;81.80;;;;;;4975912;28;20030;-82
2021/09/13 04:46:13;;;;;;;18.63;14.07;;;15.30;81.50;;;;;;4993227;28;20115;-82
2021/09/13 04:48:39;;;;;;;19.38;13.82;;;15.40;81.30;;;;;;4975308;28;20697;-82
2021/09/13 04:51:05;;;;;;;17.83;13.00;;;15.50;81.00;;;;;;4991361;28;20069;-83
2021/09/13 04:53:31;;;;;;;19.27;14.13;;;15.60;80.70;;;;;;4976607;28;20034;-83
2021/09/13 04:55:56;;;;;;;19.77;14.60;;;15.70;80.50;;;;;;4976697;28;20086;-83
2021/09/13 04:58:22;;;;;;;19.33;14.13;;;15.80;80.20;;;;;;4994793;28;20035;-82
2021/09/13 05:00:48;;;;;;;17.45;13.73;;;15.80;79.90;;;;;;4995591;28;20108;-81
2021/09/13 05:03:13;;;;;;;19.33;14.35;;;15.90;79.70;;;;;;4995099;28;20113;-82
2021/09/13 05:05:39;;;;;;;17.83;13.55;;;16.00;79.50;;;;;;4995081;28;20024;-82
2021/09/13 05:08:05;;;;;;;21.35;15.07;;;16.10;79.30;;;;;;4995338;28;20030;-81
2021/09/13 05:10:31;;;;;;;21.08;13.90;;;16.20;79.20;;;;;;4995537;28;20399;-83
2021/09/13 05:12:56;;;;;;;18.60;13.40;;;16.30;78.90;;;;;;4994064;28;20074;-82
2021/09/13 05:15:22;;;;;;;21.40;15.27;;;16.40;78.70;;;;;;4994903;28;20096;-82
2021/09/13 05:17:48;;;;;;;19.88;14.50;;;16.60;78.50;;;;;;4976834;28;20049;-82
2021/09/13 05:20:14;;;;;;;21.00;14.25;;;16.70;78.20;;;;;;4994967;28;20038;-82
2021/09/13 05:22:40;;;;;;;16.95;13.07;;;16.90;77.80;;;;;;4993571;28;20434;-81
2021/09/13 05:25:06;;;;;;;17.02;12.77;;;17.10;77.50;;;;;;4995009;28;20034;-81
2021/09/13 05:27:32;;;;;;;15.63;12.27;;;17.20;77.10;;;;;;4976963;28;20058;-82
2021/09/13 05:29:57;;;;;;;17.15;12.70;;;17.30;76.70;;;;;;4977497;28;20070;-83
2021/09/13 05:32:23;;;;;;;16.73;12.00;;;17.50;76.50;;;;;;4977504;28;20042;-84
2021/09/13 05:34:49;;;;;;;16.70;11.75;;;17.60;76.20;;;;;;4995062;28;20034;-83
2021/09/13 05:37:15;;;;;;;15.93;11.20;;;17.80;75.90;;;;;;4993393;28;20050;-82
2021/09/13 05:39:40;;;;;;;296.20;211.95;;;17.90;75.60;;;;;;4993214;28;20420;-81
2021/09/13 05:42:06;;;;;;;119.82;86.15;;;18.00;75.40;;;;;;4994723;28;20034;-87
2021/09/13 05:44:32;;;;;;;75.30;55.47;;;18.10;75.20;;;;;;4977944;28;20034;-83
2021/09/13 05:46:58;;;;;;;51.03;39.63;;;18.20;74.80;;;;;;4977808;28;20046;-80
2021/09/13 05:49:24;;;;;;;35.55;27.48;;;18.30;74.60;;;;;;4994580;28;20138;-82
2021/09/13 05:51:52;;;;;;;28.38;21.42;;;18.50;74.40;;;;;;4993468;28;20034;-88
2021/09/13 05:54:22;;;;;;;24.20;18.02;;;18.60;74.10;;;;;;4996188;28;20034;-85
2021/09/13 05:56:56;;;;;;;21.38;16.50;;;18.80;73.80;;;;;;4979603;28;20060;-84
2021/09/13 05:59:23;;;;;;;22.90;17.30;;;18.90;73.50;;;;;;4976824;28;20058;-82
2021/09/13 06:01:50;;;;;;;19.80;14.30;;;19.00;73.10;;;;;;4992298;28;20038;-84
2021/09/13 06:04:17;;;;;;;16.73;13.00;;;19.20;73.00;;;;;;4976495;28;20436;-84
2021/09/13 06:06:43;;;;;;;17.98;12.27;;;19.30;72.60;;;;;;4976677;28;20181;-83
2021/09/13 06:09:10;;;;;;;12.70;10.23;;;19.40;72.20;;;;;;4993742;28;20464;-85
2021/09/13 06:11:36;;;;;;;96.90;69.88;;;19.60;71.90;;;;;;4976797;28;20129;-84
2021/09/13 06:14:03;;;;;;;43.53;32.65;;;19.70;71.80;;;;;;4994475;28;20140;-85
2021/09/13 06:16:29;;;;;;;29.80;22.95;;;19.90;71.30;;;;;;4977303;28;20039;-84
2021/09/13 06:18:55;;;;;;;24.50;17.80;;;20.10;70.80;;;;;;4974759;28;20077;-83
2021/09/13 06:21:21;;;;;;;19.35;15.43;;;20.10;70.20;;;;;;4992653;28;20464;-84
2021/09/13 06:23:46;;;;;;;17.13;13.52;;;20.30;70.00;;;;;;4975798;28;20125;-83
2021/09/13 06:26:13;;;;;;;14.48;10.60;;;20.40;69.90;;;;;;4993607;28;20042;-83
2021/09/13 06:28:39;;;;;;;12.43;9.73;;;20.50;69.70;;;;;;4976279;28;20089;-83
2021/09/13 06:31:05;;;;;;;12.77;9.93;;;20.60;69.30;;;;;;4974780;28;20081;-83
2021/09/13 06:33:32;;;;;;;12.25;9.02;;;20.80;68.70;;;;;;4990825;28;20117;-84
2021/09/13 06:35:59;;;;;;;13.05;10.05;;;21.00;68.40;;;;;;4973122;28;20043;-83
2021/09/13 06:38:25;;;;;;;14.57;10.75;;;21.10;67.80;;;;;;4990749;28;20110;-85
2021/09/13 06:40:51;;;;;;;12.98;10.18;;;21.20;67.00;;;;;;4994401;28;20081;-83
2021/09/13 06:43:18;;;;;;;13.10;10.05;;;21.30;66.40;;;;;;4994386;28;20066;-84
2021/09/13 06:45:45;;;;;;;12.70;9.70;;;21.40;66.10;;;;;;4995958;28;20030;-83
2021/09/13 06:48:14;;;;;;;11.75;9.02;;;21.50;65.90;;;;;;4997557;28;20122;-82
2021/09/13 06:50:44;;;;;;;10.48;8.57;;;21.50;65.80;;;;;;4980496;28;20396;-82
2021/09/13 06:53:10;;;;;;;8.73;7.55;;;21.70;65.70;;;;;;4980597;28;20034;-83
2021/09/13 06:55:38;;;;;;;10.73;7.68;;;21.90;65.40;;;;;;4997649;28;20035;-83
2021/09/13 06:58:08;;;;;;;8.65;7.18;;;22.10;65.00;;;;;;4997770;28;20104;-83
2021/09/13 07:00:34;;;;;;;11.18;7.20;;;22.30;64.40;;;;;;4997520;28;20041;-83
2021/09/13 07:03:01;;;;;;;9.25;7.35;;;22.50;64.00;;;;;;4980146;28;20046;-82
2021/09/13 07:05:27;;;;;;;9.05;6.85;;;22.70;63.50;;;;;;4997866;28;20031;-83
2021/09/13 07:07:53;;;;;;;10.73;8.48;;;22.90;63.10;;;;;;4979966;28;20045;-84
2021/09/13 07:10:19;;;;;;;12.07;9.20;;;23.00;62.60;;;;;;4979879;28;20030;-83
2021/09/13 07:12:47;;;;;;;10.85;8.10;;;23.20;61.80;;;;;;4979993;28;20385;-83
2021/09/13 07:15:15;;;;;;;12.52;9.00;;;23.30;61.50;;;;;;4996084;28;20117;-83
2021/09/13 07:17:41;;;;;;;13.13;9.40;;;23.40;61.10;;;;;;4995858;28;20042;-83
2021/09/13 07:20:07;;;;;;;11.65;8.35;;;23.40;60.30;;;;;;4979785;28;20050;-83
2021/09/13 07:22:33;;;;;;;10.77;8.00;;;23.50;60.30;;;;;;4997074;28;20027;-83
2021/09/13 07:24:59;;;;;;;11.20;8.77;;;23.70;60.10;;;;;;4997199;28;20396;-82
2021/09/13 07:27:24;;;;;;;10.60;8.48;;;23.80;59.60;;;;;;4979552;28;20066;-83
2021/09/13 07:29:50;;;;;;;10.23;8.00;;;24.10;59.70;;;;;;4997561;28;20030;-83
2021/09/13 07:32:16;;;;;;;9.32;7.22;;;24.40;60.30;;;;;;4999269;28;20105;-82
2021/09/13 07:34:41;;;;;;;8.40;6.60;;;24.80;60.90;;;;;;4981236;28;20031;-83
2021/09/13 07:37:07;;;;;;;8.52;7.20;;;25.20;61.10;;;;;;4980018;28;20042;-81
2021/09/13 07:39:33;;;;;;;8.15;7.05;;;25.60;60.00;;;;;;4996826;28;20042;-83
2021/09/13 07:41:59;;;;;;;8.48;7.20;;;25.90;59.00;;;;;;4997103;28;20084;-83
2021/09/13 07:44:25;;;;;;;8.85;7.20;;;26.20;58.10;;;;;;4979665;28;20035;-83
2021/09/13 07:46:52;;;;;;;8.80;7.15;;;26.60;57.80;;;;;;4979492;28;20420;-82
2021/09/13 07:49:19;;;;;;;9.00;7.20;;;26.90;57.20;;;;;;4996972;28;20069;-83
2021/09/13 07:51:45;;;;;;;8.90;7.05;;;27.30;56.60;;;;;;4978480;28;20038;-83
2021/09/13 07:54:11;;;;;;;10.98;8.35;;;27.60;55.90;;;;;;4979437;28;20042;-84
2021/09/13 07:56:37;;;;;;;10.45;7.80;;;28.00;55.30;;;;;;4996921;28;20385;-83
2021/09/13 07:59:03;;;;;;;9.15;7.50;;;28.40;54.50;;;;;;4996533;28;20177;-83
2021/09/13 08:01:30;;;;;;;9.23;7.32;;;28.70;54.00;;;;;;4979462;28;20038;-83
2021/09/13 08:03:56;;;;;;;9.15;7.13;;;29.20;53.20;;;;;;4978860;28;20035;-83
2021/09/13 08:06:22;;;;;;;9.43;8.07;;;29.50;52.40;;;;;;4996468;28;20397;-84
2021/09/13 08:08:48;;;;;;;8.40;7.50;;;29.90;51.60;;;;;;4996545;28;20042;-84
2021/09/13 08:11:14;;;;;;;9.68;7.40;;;30.20;50.90;;;;;;4996719;28;20097;-85
2021/09/13 08:13:41;;;;;;;12.32;7.80;;;30.50;50.30;;;;;;4978785;28;20042;-84
2021/09/13 08:16:07;;;;;;;9.88;7.90;;;30.80;49.50;;;;;;4979067;28;20102;-84
2021/09/13 08:18:33;;;;;;;11.48;8.80;;;31.10;49.00;;;;;;4996369;28;20054;-84
2021/09/13 08:21:00;;;;;;;9.02;7.70;;;31.30;48.30;;;;;;4996251;28;20038;-84
2021/09/13 08:23:26;;;;;;;9.95;8.68;;;31.50;48.30;;;;;;5001613;28;20042;-83
2021/09/13 08:25:51;;;;;;;9.88;8.25;;;31.70;47.70;;;;;;5006201;28;20081;-84
2021/09/13 08:28:21;;;;;;;10.35;8.65;;;31.90;46.70;;;;;;5010019;28;20195;-82
2021/09/13 08:30:47;;;;;;;10.77;8.18;;;32.10;46.30;;;;;;5010814;28;20054;-84
2021/09/13 08:33:13;;;;;;;10.07;8.20;;;32.20;45.70;;;;;;5006569;28;20031;-84
2021/09/13 08:35:39;;;;;;;8.18;7.30;;;32.40;45.30;;;;;;5006982;28;20041;-84
2021/09/13 08:38:05;;;;;;;8.48;7.30;;;32.50;45.10;;;;;;5012757;28;20139;-83
2021/09/13 08:40:31;;;;;;;10.20;8.43;;;32.70;44.70;;;;;;5008643;28;20030;-83
2021/09/13 08:42:58;;;;;;;12.93;8.57;;;32.80;43.90;;;;;;5001490;28;20089;-83
2021/09/13 08:45:43;;;;;;;8.45;7.55;;;32.90;43.20;;;;;;4980483;28;20034;-84
2021/09/13 08:53:02;;;;;;;9.82;7.65;;;33.30;42.80;;;;;;4996998;28;20078;-83
2021/09/13 08:55:27;;;;;;;7.72;6.93;;;33.50;42.40;;;;;;4995778;28;20084;-84
2021/09/13 08:57:54;;;;;;;8.32;7.00;;;33.70;42.00;;;;;;4995550;28;20046;-84
2021/09/13 09:00:20;;;;;;;9.50;8.05;;;33.90;41.60;;;;;;4994972;28;20030;-84
2021/09/13 09:02:46;;;;;;;7.75;6.90;;;34.00;40.80;;;;;;4995219;28;20093;-84
2021/09/13 09:05:12;;;;;;;7.57;6.70;;;34.00;40.60;;;;;;4995214;28;20031;-84
2021/09/13 09:07:48;;;;;;;8.25;6.57;;;34.10;40.70;;;;;;4995323;28;20046;-84
2021/09/13 09:10:22;;;;;;;7.72;6.85;;;34.40;40.00;;;;;;4995409;28;20030;-83
2021/09/13 09:13:03;;;;;;;8.82;7.72;;;34.40;40.10;;;;;;4995801;28;20061;-83
2021/09/13 09:15:31;;;;;;;8.82;7.50;;;34.50;38.00;;;;;;4978048;28;20045;-83
2021/09/13 09:18:00;;;;;;;8.18;7.18;;;34.50;39.50;;;;;;4978128;28;20054;-84
2021/09/13 09:20:27;;;;;;;10.02;7.30;;;34.60;39.30;;;;;;4995149;28;20481;-84
2021/09/13 09:23:04;;;;;;;8.75;7.40;;;34.60;39.30;;;;;;4977586;28;20030;-84
2021/09/13 09:25:33;;;;;;;8.10;6.78;;;34.80;37.90;;;;;;4977866;28;20041;-84
2021/09/13 09:28:00;;;;;;;;;;;34.90;39.10;;;;;;4994270;28;20473;-84
2021/09/13 09:30:56;;;;;;;8.93;7.72;;;34.80;37.10;;;;;;4977392;28;19905;-84
2021/09/13 09:33:23;;;;;;;7.85;6.47;;;35.10;35.70;;;;;;4993884;28;20043;-84
2021/09/13 09:35:54;;;;;;;7.90;6.97;;;35.10;38.40;;;;;;4994798;28;20038;-84
2021/09/13 09:38:27;;;;;;;8.00;6.93;;;35.30;38.20;;;;;;4994768;28;20124;-84
2021/09/13 09:41:02;;;;;;;9.48;7.10;;;35.50;37.60;;;;;;4977272;28;20042;-84
2021/09/13 09:43:46;;;;;;;8.15;7.07;;;35.80;37.50;;;;;;4994590;28;20061;-84
2021/09/13 09:46:12;;;;;;;7.93;6.97;;;35.90;36.60;;;;;;4977744;28;20042;-84
2021/09/13 09:48:38;;;;;;;8.07;7.20;;;35.80;36.70;;;;;;4977478;28;20046;-84
2021/09/13 09:51:24;;;;;;;8.45;7.10;;;35.90;36.50;;;;;;4994620;28;20026;-84
2021/09/13 09:53:49;;;;;;;8.00;6.47;;;36.10;35.50;;;;;;4977134;28;20196;-83
2021/09/13 09:56:15;;;;;;;10.73;7.50;;;36.20;36.40;;;;;;4994610;28;20116;-83
2021/09/13 09:59:01;;;;;;;7.45;6.63;;;36.30;36.20;;;;;;4977087;28;20043;-84
2021/09/13 10:01:31;;;;;;;7.75;6.70;;;36.70;33.50;;;;;;4994364;28;20492;-83
2021/09/13 10:03:56;;;;;;;7.90;7.05;;;36.80;35.20;;;;;;4994430;28;20042;-83
2021/09/13 10:06:25;;;;;;;7.65;6.82;;;36.80;35.10;;;;;;4994459;28;20389;-83
2021/09/13 10:08:51;;;;;;;7.38;6.57;;;37.10;35.20;;;;;;4976682;28;20393;-84
2021/09/13 10:11:17;;;;;;;8.10;7.00;;;37.30;35.00;;;;;;4994154;28;20035;-84
2021/09/13 10:13:43;;;;;;;8.32;6.43;;;37.30;34.70;;;;;;4993189;28;20042;-84
2021/09/13 10:16:09;;;;;;;7.35;6.65;;;37.40;34.70;;;;;;4994596;28;20373;-84
2021/09/13 10:18:34;;;;;;;7.53;6.82;;;37.50;34.70;;;;;;4993870;28;20046;-84
2021/09/13 10:21:00;;;;;;;8.98;6.90;;;37.60;34.50;;;;;;4976777;28;20050;-84
2021/09/13 10:23:26;;;;;;;7.38;6.60;;;37.70;34.30;;;;;;4994404;28;20456;-84
2021/09/13 10:25:51;;;;;;;7.47;6.60;;;37.50;34.00;;;;;;4994667;28;20121;-84
2021/09/13 10:28:17;;;;;;;8.07;7.25;;;37.10;34.00;;;;;;4992917;28;20046;-83
2021/09/13 10:30:53;;;;;;;8.43;7.53;;;36.60;34.50;;;;;;4976536;28;20045;-83
2021/09/13 10:33:19;;;;;;;8.07;7.28;;;36.50;34.00;;;;;;4977216;28;20528;-84
2021/09/13 10:36:02;;;;;;;7.65;6.80;;;36.70;34.70;;;;;;4995425;28;20034;-84
2021/09/13 10:38:42;;;;;;;8.32;6.95;;;37.10;34.30;;;;;;4976833;28;20575;-84
2021/09/13 10:41:08;;;;;;;8.95;6.80;;;37.40;32.90;;;;;;4976575;28;20088;-84
2021/09/13 10:44:06;;;;;;;7.75;6.95;;;37.50;34.10;;;;;;4993899;28;20034;-85
2021/09/13 10:47:03;;;;;;;8.30;7.40;;;37.80;31.90;;;;;;4977017;28;20121;-85
2021/09/13 10:49:29;;;;;;;7.97;6.55;;;38.10;32.20;;;;;;4994292;28;20473;-83
2021/09/13 10:52:37;;;;;;;7.78;6.97;;;38.30;33.20;;;;;;4994171;28;20042;-85
2021/09/13 10:55:09;;;;;;;7.83;7.03;;;38.70;31.30;;;;;;4988832;28;20085;-85
2021/09/13 10:57:52;;;;;;;8.10;7.30;;;38.80;32.60;;;;;;4994139;28;20071;-85
2021/09/13 11:00:37;;;;;;;7.65;6.68;;;39.00;31.30;;;;;;4976390;28;20448;-84
2021/09/13 11:03:29;;;;;;;9.13;6.72;;;39.00;30.80;;;;;;4993794;28;20034;-85
2021/09/13 11:08:47;;;;;;;7.93;7.10;;;39.30;30.70;;;;;;4994010;28;20035;-84
2021/09/13 11:11:18;;;;;;;8.00;7.18;;;39.00;31.70;;;;;;4996196;28;20473;-84
2021/09/13 11:13:46;;;;;;;8.32;7.43;;;38.50;31.90;;;;;;4993394;28;20041;-85
2021/09/13 11:16:16;;;;;;;8.55;7.18;;;38.10;32.00;;;;;;4976966;28;20373;-85
2021/09/13 11:18:46;;;;;;;9.68;7.22;;;37.80;32.30;;;;;;4992588;28;20465;-85
2021/09/13 11:21:25;;;;;;;9.38;7.35;;;37.60;32.70;;;;;;4994098;28;20062;-85
2021/09/13 11:23:55;;;;;;;;;;;37.80;32.10;;;;;;4961230;28;20046;-85
2021/09/13 11:26:35;;;;;;;7.40;6.30;;;37.70;31.90;;;;;;4994614;28;19987;-84
2021/09/13 11:29:10;;;;;;;8.32;7.10;;;38.10;32.10;;;;;;4997121;28;20069;-84
2021/09/13 11:31:38;;;;;;;9.13;7.65;;;38.50;32.40;;;;;;4979584;28;20034;-84
2021/09/13 11:34:19;;;;;;;8.27;6.93;;;38.90;32.10;;;;;;4997016;28;20038;-85
2021/09/13 11:36:55;;;;;;;8.43;7.22;;;39.30;30.40;;;;;;4980317;28;20125;-84
2021/09/13 11:39:22;;;;;;;7.68;6.80;;;39.40;30.80;;;;;;4979470;28;20440;-83
2021/09/13 11:42:04;;;;;;;8.82;6.93;;;39.30;31.50;;;;;;4996354;28;20034;-83
2021/09/13 11:44:36;;;;;;;6.88;6.18;;;39.20;29.20;;;;;;4979106;28;20404;-83
2021/09/13 11:47:05;;;;;;;6.95;6.25;;;38.70;30.40;;;;;;4980863;28;20026;-83
2021/09/13 11:49:36;;;;;;;7.07;6.10;;;37.90;30.30;;;;;;4979491;28;20117;-84
2021/09/13 11:52:33;;;;;;;6.40;5.78;;;37.10;30.70;;;;;;4996992;28;20479;-83
2021/09/13 11:55:09;;;;;;;6.93;6.22;;;36.90;30.60;;;;;;4978973;28;20077;-84
2021/09/13 11:57:49;;;;;;;7.15;6.35;;;36.90;30.70;;;;;;4979570;28;20510;-84
2021/09/13 12:00:28;;;;;;;7.32;6.57;;;37.20;30.60;;;;;;4979814;28;20041;-83
2021/09/13 12:03:00;;;;;;;7.75;6.68;;;37.60;30.20;;;;;;4996708;28;20034;-84
2021/09/13 12:05:29;;;;;;;6.75;6.07;;;37.60;29.70;;;;;;4978969;28;20485;-84
2021/09/13 12:07:57;;;;;;;7.15;5.88;;;37.60;29.80;;;;;;4979198;28;20109;-87
2021/09/13 12:10:28;;;;;;;6.40;5.80;;;37.60;29.80;;;;;;4996350;28;20384;-84
2021/09/13 12:12:57;;;;;;;7.38;6.22;;;37.90;29.70;;;;;;4996687;28;20035;-83
2021/09/13 12:15:27;;;;;;;;;;;38.00;29.80;;;;;;4979268;28;20066;-84
2021/09/13 12:17:54;;;;;;;7.00;6.30;;;37.90;29.50;;;;;;4996234;28;19913;-85
2021/09/13 12:20:23;;;;;;;6.63;5.93;;;37.90;29.50;;;;;;4996492;28;20030;-83
2021/09/13 12:22:57;;;;;;;7.50;6.28;;;38.00;29.60;;;;;;4996136;28;20418;-84
2021/09/13 12:25:25;;;;;;;7.18;6.22;;;38.00;29.60;;;;;;4978872;28;20454;-84
2021/09/13 12:27:53;;;;;;;8.13;6.35;;;38.00;29.70;;;;;;4994803;28;20035;-84
2021/09/13 12:30:27;;;;;;;8.17;6.30;;;38.20;29.60;;;;;;4978307;28;20060;-84
2021/09/13 12:33:05;;;;;;;6.63;5.93;;;38.30;29.00;;;;;;4978214;28;20264;-84
2021/09/13 12:35:39;;;;;;;7.20;6.00;;;38.40;29.40;;;;;;4996627;28;20125;-84
2021/09/13 12:38:07;;;;;;;6.78;6.07;;;38.50;29.60;;;;;;4979674;28;20046;-85
2021/09/13 12:40:46;;;;;;;;;;;38.70;29.60;;;;;;4996405;28;20063;-85
2021/09/13 12:43:21;;;;;;;7.47;6.35;;;38.50;28.40;;;;;;4978210;28;19905;-84
2021/09/13 12:45:47;;;;;;;7.95;6.22;;;38.80;29.60;;;;;;4978647;28;20035;-85
2021/09/13 12:48:27;;;;;;;7.15;6.03;;;38.90;29.00;;;;;;4978295;28;20038;-84
2021/09/13 12:50:55;;;;;;;6.93;6.22;;;38.90;28.80;;;;;;4995937;28;20038;-85